Latest Weather Observations for Tocal

IDN60801

Issued at 9:52 pm EST Saturday 18 August 2018 (issued every 10 minutes, with the page automatically refreshed every 10 minutes)

About weather observations | Map of weather stations | Latest weather observations for NSW | Other Formats
Station Details ID: 061250 Name: TOCAL AWS Lat: -32.63 Lon: 151.59 Height: 30.0 m
Data from the previous 72 hours. | See also: Recent months at Tocal
Date/Time
EST
Temp
°C
App
Temp
°C
Dew
Point
°C
Rel
Hum
%
Delta-T
°C
Wind Press
QNH
hPa
Press
MSL
hPa
Rain since
9am
mm
Dir  Spd
km/h
Gust
km/h
Spd
kts
Gust
kts
18/09:30pm 15.5 - - - - WSW 26 41 14 22 - - 0.0
18/09:00pm 15.3 - - - - W 19 30 10 16 - - 0.0
18/08:30pm 15.9 - - - - W 22 39 12 21 - - 0.0
18/08:00pm 15.7 - - - - WSW 20 32 11 17 - - 0.0
18/07:30pm 16.3 - - - - WSW 24 37 13 20 - - 0.0
18/07:00pm 18.3 - - - - W 17 33 9 18 - - 0.0
18/06:30pm 18.6 - - - - W 17 26 9 14 - - 0.0
18/06:00pm 19.0 - - - - W 15 28 8 15 - - 0.0
18/05:30pm 19.9 - - - - WNW 17 32 9 17 - - 0.0
18/05:00pm 20.4 - - - - WNW 17 30 9 16 - - 0.0
18/04:30pm 20.6 - - - - WNW 19 35 10 19 - - 0.0
18/04:00pm 21.2 - - - - NW 28 48 15 26 - - 0.0
18/03:31pm 21.9 - - - - WNW 28 50 15 27 - - 0.0
18/03:30pm 21.8 - - - - WNW 26 50 14 27 - - 0.0
18/03:22pm 22.0 - - - - WNW 28 50 15 27 - - 0.0
18/03:00pm 21.8 - - - - NNW 26 37 14 20 - - 0.0
18/02:30pm 21.8 - - - - NW 26 41 14 22 - - 0.0
18/02:08pm 22.0 - - - - NW 30 50 16 27 - - 0.0
18/02:00pm 21.9 - - - - NW 30 46 16 25 - - 0.0
18/01:30pm 21.9 - - - - WNW 28 50 15 27 - - 0.0
18/01:29pm 21.9 - - - - WNW 28 50 15 27 - - 0.0
18/01:00pm 21.4 - - - - WNW 20 48 11 26 - - 0.0
18/12:43pm 21.1 - - - - NW 28 46 15 25 - - 0.0
18/12:30pm 21.3 - - - - NW 22 48 12 26 - - 0.0
18/12:12pm 20.2 - - - - W 28 50 15 27 - - 0.0
18/12:00pm 20.4 - - - - WNW 22 39 12 21 - - 0.0
18/11:38am 20.5 - - - - NW 28 50 15 27 - - 0.0
18/11:30am 19.8 - - - - WNW 26 52 14 28 - - 0.0
18/11:06am 19.8 - - - - NW 28 54 15 29 - - 0.0
18/11:00am 19.1 - - - - NW 22 37 12 20 - - 0.0
18/10:30am 18.7 - - - - NW 22 37 12 20 - - 0.0
18/10:00am 18.1 - - - - NW 22 37 12 20 - - 0.0
18/09:30am 14.9 - - - - NE 7 11 4 6 - - 0.0
18/09:00am 11.4 - - - - ENE 7 9 4 5 - - 0.0
18/08:30am 8.7 - - - - NE 7 7 4 4 - - 0.0
18/08:00am 5.8 - - - - CALM 0 0 0 0 - - 0.0
18/07:30am 3.8 - - - - CALM 0 0 0 0 - - 0.0
18/07:00am 1.7 - - - - CALM 0 0 0 0 - - 0.0
18/06:30am 1.8 - - - - WNW 4 7 2 4 - - 0.0
18/06:00am 2.4 - - - - CALM 0 0 0 0 - - 0.0
18/05:30am 2.0 - - - - CALM 0 0 0 0 - - 0.0
18/05:00am 2.4 - - - - W 4 7 2 4 - - 0.0
18/04:30am 2.6 - - - - CALM 0 0 0 0 - - 0.0
18/04:00am 3.1 - - - - W 2 6 1 3 - - 0.0
18/03:30am 3.7 - - - - W 6 7 3 4 - - 0.0
18/03:00am 3.4 - - - - NW 4 7 2 4 - - 0.0
18/02:30am 3.9 - - - - W 7 9 4 5 - - 0.0
18/02:00am 5.1 - - - - WSW 6 9 3 5 - - 0.0
18/01:30am 4.5 - - - - CALM 0 0 0 0 - - 0.0
18/01:00am 4.4 - - - - W 4 6 2 3 - - 0.0
18/12:30am 4.9 - - - - NNW 6 7 3 4 - - 0.0
18/12:00am 5.5 - - - - W 7 9 4 5 - - 0.0
 
Date/Time
EST
Temp
°C
App
Temp
°C
Dew
Point
°C
Rel
Hum
%
Delta-T
°C
Wind Press
QNH
hPa
Press
MSL
hPa
Rain since
9am
mm
Dir  Spd
km/h
Gust
km/h
Spd
kts
Gust
kts
17/11:30pm 5.8 - - - - WNW 2 6 1 3 - - 0.0
17/11:00pm 6.7 - - - - W 4 7 2 4 - - 0.0
17/10:30pm 6.9 - - - - NW 6 7 3 4 - - 0.0
17/10:00pm 7.7 - - - - NW 7 9 4 5 - - 0.0
17/09:30pm 8.3 - - - - WNW 6 7 3 4 - - 0.0
17/09:00pm 8.0 - - - - CALM 0 0 0 0 - - 0.0
17/08:30pm 10.3 - - - - W 4 9 2 5 - - 0.0
17/08:00pm 11.1 - - - - CALM 0 0 0 0 - - 0.0
17/07:30pm 12.3 - - - - S 11 17 6 9 - - 0.0
17/07:00pm 12.1 - - - - WNW 6 9 3 5 - - 0.0
17/06:30pm 14.6 - - - - WSW 9 11 5 6 - - 0.0
17/06:00pm 15.2 - - - - WNW 7 11 4 6 - - 0.0
17/05:30pm 16.2 - - - - WNW 9 15 5 8 - - 0.0
17/05:00pm 17.5 - - - - WNW 11 19 6 10 - - 0.0
17/04:30pm 17.9 - - - - WNW 13 20 7 11 - - 0.0
17/04:00pm 18.0 - - - - W 13 19 7 10 - - 0.0
17/03:30pm 18.4 - - - - WNW 13 24 7 13 - - 0.0
17/03:00pm 18.1 - - - - WNW 13 24 7 13 - - 0.0
17/02:30pm 18.0 - - - - W 20 33 11 18 - - 0.0
17/02:00pm 18.3 - - - - WNW 17 32 9 17 - - 0.0
17/01:30pm 18.4 - - - - W 19 30 10 16 - - 0.0
17/01:00pm 17.8 - - - - WNW 17 30 9 16 - - 0.0
17/12:30pm 17.5 - - - - WNW 19 33 10 18 - - 0.0
17/12:00pm 16.8 - - - - W 15 28 8 15 - - 0.0
17/11:30am 16.7 - - - - W 19 32 10 17 - - 0.0
17/11:00am 15.5 - - - - WNW 17 26 9 14 - - 0.0
17/10:30am 15.1 - - - - W 20 30 11 16 - - 0.0
17/10:00am 14.6 - - - - W 20 26 11 14 - - 0.0
17/09:30am 14.2 - - - - NNE 7 9 4 5 - - 0.0
17/09:00am 12.2 - - - - ENE 7 9 4 5 - - 0.0
17/08:30am 10.4 - - - - NE 4 7 2 4 - - 0.0
17/08:00am 7.7 - - - - CALM 0 2 0 1 - - 0.0
17/07:30am 5.5 - - - - CALM 0 0 0 0 - - 0.0
17/07:00am 4.1 - - - - CALM 0 0 0 0 - - 0.0
17/06:30am 6.3 - - - - CALM 0 0 0 0 - - 0.0
17/06:00am 6.0 - - - - CALM 0 0 0 0 - - 0.0
17/05:30am 6.5 - - - - N 4 7 2 4 - - 0.0
17/05:00am 6.3 - - - - NNW 6 7 3 4 - - 0.0
17/04:30am 7.1 - - - - CALM 0 0 0 0 - - 0.0
17/04:00am 7.0 - - - - CALM 0 6 0 3 - - 0.0
17/03:30am 6.9 - - - - CALM 0 7 0 4 - - 0.0
17/03:00am 7.8 - - - - CALM 0 0 0 0 - - 0.0
17/02:30am 7.2 - - - - CALM 0 0 0 0 - - 0.0
17/02:00am 7.1 - - - - CALM 0 0 0 0 - - 0.0
17/01:30am 6.8 - - - - CALM 0 0 0 0 - - 0.0
17/01:00am 7.0 - - - - CALM 0 0 0 0 - - 0.0
17/12:30am 7.2 - - - - CALM 0 0 0 0 - - 0.0
17/12:00am 7.6 - - - - WSW 7 9 4 5 - - 0.0
 
Date/Time
EST
Temp
°C
App
Temp
°C
Dew
Point
°C
Rel
Hum
%
Delta-T
°C
Wind Press
QNH
hPa
Press
MSL
hPa
Rain since
9am
mm
Dir  Spd
km/h
Gust
km/h
Spd
kts
Gust
kts
16/11:30pm 7.9 - - - - CALM 0 0 0 0 - - 0.0
16/11:00pm 7.7 - - - - W 2 6 1 3 - - 0.0
16/10:30pm 8.3 - - - - NNW 6 7 3 4 - - 0.0
16/10:00pm 8.8 - - - - CALM 0 4 0 2 - - 0.0
16/09:30pm 9.3 - - - - NNW 6 7 3 4 - - 0.0
16/09:00pm 9.9 - - - - CALM 0 0 0 0 - - 0.0
16/08:30pm 10.5 - - - - NNW 4 7 2 4 - - 0.0
16/08:00pm 11.2 - - - - NW 4 7 2 4 - - 0.0
16/07:30pm 11.9 - - - - NNW 6 11 3 6 - - 0.0
16/07:00pm 13.8 - - - - SW 7 9 4 5 - - 0.0
16/06:30pm 13.5 - - - - NW 11 15 6 8 - - 0.0
16/06:00pm 14.5 - - - - SW 6 7 3 4 - - 0.0
16/05:30pm 15.9 - - - - S 7 11 4 6 - - 0.0
16/05:00pm 16.7 - - - - SE 13 19 7 10 - - 0.0
16/04:30pm 17.5 - - - - SE 17 26 9 14 - - 0.0
16/04:00pm 18.5 - - - - SSE 15 24 8 13 - - 0.0
16/03:30pm 19.4 - - - - SSE 19 30 10 16 - - 0.0
16/03:00pm 20.9 - - - - SSE 11 20 6 11 - - 0.0
16/02:30pm 21.3 - - - - S 13 24 7 13 - - 0.0
16/02:00pm 25.0 - - - - WNW 20 32 11 17 - - 0.0
16/01:30pm 25.5 - - - - NW 26 43 14 23 - - 0.0
16/01:00pm 25.0 - - - - NW 20 37 11 20 - - 0.0
16/12:30pm 24.7 - - - - W 20 41 11 22 - - 0.0
16/12:09pm 25.0 - - - - NW 28 52 15 28 - - 0.0
16/12:00pm 24.8 - - - - WNW 22 46 12 25 - - 0.0
16/11:30am 23.6 - - - - WNW 28 48 15 26 - - 0.0
16/11:00am 23.3 - - - - W 20 35 11 19 - - 0.0
16/10:30am 22.4 - - - - W 20 37 11 20 - - 0.0
16/10:00am 22.0 - - - - WNW 24 46 13 25 - - 0.0
16/09:49am 21.9 - - - - NW 28 46 15 25 - - 0.0
16/09:30am 21.4 - - - - W 19 33 10 18 - - 0.0
16/09:00am 20.2 - - - - WNW 17 28 9 15 - - 0.0
16/08:30am 19.8 - - - - WNW 19 32 10 17 - - 0.0
16/08:00am 18.1 - - - - NW 17 30 9 16 - - 0.0
16/07:30am 15.7 - - - - NW 13 19 7 10 - - 0.0
16/07:00am 14.9 - - - - W 11 19 6 10 - - 0.0
16/06:30am 15.1 - - - - W 13 19 7 10 - - 0.0
16/06:00am 14.8 - - - - W 6 9 3 5 - - 0.0
16/05:30am 15.7 - - - - WSW 7 11 4 6 - - 0.0
16/05:00am 15.0 - - - - WSW 2 9 1 5 - - 0.0
16/04:30am 15.8 - - - - SSW 9 15 5 8 - - 0.0
16/04:00am 17.7 - - - - WSW 13 17 7 9 - - 0.0
16/03:30am 19.2 - - - - WNW 19 39 10 21 - - 0.0
16/03:00am 20.2 - - - - NW 24 37 13 20 - - 0.0
16/02:30am 20.0 - - - - NW 17 30 9 16 - - 0.0
16/02:00am 20.0 - - - - WNW 19 37 10 20 - - 0.0
16/01:30am 19.8 - - - - NW 15 32 8 17 - - 0.0
16/01:00am 19.7 - - - - WNW 17 32 9 17 - - 0.0
16/12:30am 18.6 - - - - W 15 26 8 14 - - 0.0
16/12:00am 18.8 - - - - NW 19 30 10 16 - - 0.0
 
Date/Time
EST
Temp
°C
App
Temp
°C
Dew
Point
°C
Rel
Hum
%
Delta-T
°C
Wind Press
QNH
hPa
Press
MSL
hPa
Rain since
9am
mm
Dir  Spd
km/h
Gust
km/h
Spd
kts
Gust
kts
15/11:30pm 19.3 - - - - NW 22 35 12 19 - - 0.0
15/11:00pm 18.9 - - - - NW 17 30 9 16 - - 0.0
15/10:30pm 17.7 - - - - NW 13 19 7 10 - - 0.0
15/10:00pm 17.9 - - - - NW 15 22 8 12 - - 0.0

Other Formats:

Comma delimited format used in spreadsheet applications
http://www.bom.gov.au/fwo/IDN60801/IDN60801.94775.axf

JavaScript Object Notation format (JSON) in row-major order
http://www.bom.gov.au/fwo/IDN60801/IDN60801.94775.json